Saint Cloud, Minnesota
Current Conditions -  °F | °C
As of 5:53 AM on Friday 28 Nov 2014 (Local Time) from KSTC Reporting Station
Overcast Overcast  
Wind Chill: -16°   Ceiling: 2600
Heat Index: -12°   Visibility: 10mi
Dew Point: -15°   Wind: 5mph
Humidity: 77%   Direction: 100°E
Pressure: 30.02"   Gusts: NA
Location:  45.55°N, 94.06°W
Report Text: KSTC 281153Z AUTO 10004KT 10SM BKN026 OVC070 M12/M15 A3002 RMK AO2 SLP199 60009 70014 T11171150 11117 21139 56022
Loading
Personal Weather Stations






























Interactive Weather Map New forecast layout! Learn more

10-Day Weather Forecast

Advertisements
Track Severe Weather on mobile